createdAt,value
2023-02-11T00:00:11.741Z,35.25
2023-02-11T00:02:56.774Z,35.01
2023-02-11T00:05:42.018Z,35.86
2023-02-11T00:08:26.950Z,34.77
2023-02-11T00:11:11.761Z,35.00
2023-02-11T00:13:56.759Z,35.51
2023-02-11T00:16:41.692Z,34.52
2023-02-11T00:19:26.609Z,35.24
2023-02-11T00:22:11.542Z,34.94
2023-02-11T00:24:56.347Z,35.48
2023-02-11T00:27:41.103Z,35.58
2023-02-11T00:30:26.073Z,35.53
2023-02-11T00:33:10.905Z,35.91
2023-02-11T00:35:55.847Z,35.14
2023-02-11T00:38:40.932Z,35.08
2023-02-11T00:41:25.781Z,36.59
2023-02-11T00:44:10.668Z,37.15
2023-02-11T00:46:55.419Z,36.31
2023-02-11T00:49:40.420Z,36.18
2023-02-11T00:52:25.259Z,36.47
2023-02-11T00:55:10.187Z,36.34
2023-02-11T00:57:55.115Z,37.88
2023-02-11T01:00:40.023Z,37.14
2023-02-11T01:03:25.158Z,37.09
2023-02-11T01:06:10.002Z,37.24
2023-02-11T01:08:54.967Z,36.76
2023-02-11T01:11:39.829Z,37.98
2023-02-11T01:14:24.769Z,37.79
2023-02-11T01:17:09.711Z,37.63
2023-02-11T01:19:54.534Z,36.06
2023-02-11T01:22:39.572Z,36.45
2023-02-11T01:25:24.488Z,35.39
2023-02-11T01:28:09.496Z,33.44
2023-02-11T01:30:54.465Z,32.33
2023-02-11T01:33:39.471Z,32.58
2023-02-11T01:36:24.423Z,31.49
2023-02-11T01:39:09.349Z,32.49
2023-02-11T01:41:54.277Z,32.58
2023-02-11T01:44:39.120Z,31.26
2023-02-11T01:47:23.931Z,32.61
2023-02-11T01:50:08.723Z,33.43
2023-02-11T01:52:53.631Z,33.32
2023-02-11T01:55:38.449Z,33.97
2023-02-11T01:58:23.351Z,33.62
2023-02-11T02:01:08.194Z,32.99
2023-02-11T02:03:53.174Z,32.82
2023-02-11T02:06:38.010Z,34.86
2023-02-11T02:09:23.099Z,33.79
2023-02-11T02:12:07.942Z,32.36
2023-02-11T02:14:52.930Z,33.11
2023-02-11T02:17:38.082Z,32.93
2023-02-11T02:20:22.871Z,32.76
2023-02-11T02:23:07.809Z,33.56
2023-02-11T02:25:52.614Z,34.31
2023-02-11T02:28:37.509Z,33.51
2023-02-11T02:31:22.519Z,33.26
2023-02-11T02:34:07.283Z,34.43
2023-02-11T02:36:52.151Z,35.70
2023-02-11T02:39:37.035Z,37.60
2023-02-11T02:42:22.042Z,36.10
2023-02-11T02:45:06.931Z,37.72
2023-02-11T02:47:52.065Z,38.72
2023-02-11T02:50:36.816Z,37.46
2023-02-11T02:53:21.670Z,38.21
2023-02-11T02:56:06.551Z,37.95
2023-02-11T02:58:51.595Z,36.41
2023-02-11T03:01:36.391Z,37.40
2023-02-11T03:04:21.192Z,36.24
2023-02-11T03:07:06.125Z,36.66
2023-02-11T03:09:51.041Z,37.36
2023-02-11T03:12:36.088Z,36.81
2023-02-11T03:15:21.005Z,35.67
2023-02-11T03:18:05.963Z,35.92
2023-02-11T03:20:50.730Z,36.11
2023-02-11T03:23:35.685Z,35.28
2023-02-11T03:26:20.540Z,34.72
2023-02-11T03:29:05.430Z,33.95
2023-02-11T03:31:50.447Z,35.54
2023-02-11T03:34:35.319Z,34.93
2023-02-11T03:37:20.319Z,35.15
2023-02-11T03:40:05.126Z,33.94
2023-02-11T03:42:49.957Z,34.54
2023-02-11T03:45:34.971Z,33.70
2023-02-11T03:48:19.806Z,32.75
2023-02-11T03:51:04.687Z,33.01
2023-02-11T03:53:49.700Z,31.82
2023-02-11T03:56:34.634Z,32.27
2023-02-11T03:59:19.346Z,31.83
2023-02-11T04:02:04.183Z,31.89
2023-02-11T04:04:48.925Z,31.33
2023-02-11T04:07:33.897Z,31.80
2023-02-11T04:10:18.686Z,31.63
2023-02-11T04:13:03.553Z,32.68
2023-02-11T04:15:49.091Z,33.96
2023-02-11T04:18:34.428Z,33.37
2023-02-11T04:21:19.426Z,32.46
2023-02-11T04:24:04.325Z,33.21
2023-02-11T04:26:49.192Z,33.16
2023-02-11T04:29:33.919Z,32.98
2023-02-11T04:32:18.763Z,33.39
2023-02-11T04:35:03.666Z,32.83
2023-02-11T04:37:48.523Z,33.46
2023-02-11T04:40:33.398Z,33.09
2023-02-11T04:43:18.184Z,33.11
2023-02-11T04:46:03.254Z,32.45
2023-02-11T04:48:47.877Z,32.29
2023-02-11T04:51:32.901Z,32.00
2023-02-11T04:54:17.858Z,32.54
2023-02-11T04:57:02.836Z,32.00
2023-02-11T04:59:47.835Z,31.78
2023-02-11T05:02:32.768Z,31.57
2023-02-11T05:05:17.627Z,30.67
2023-02-11T05:08:02.452Z,31.42
2023-02-11T05:10:47.418Z,30.07
2023-02-11T05:13:32.229Z,30.34
2023-02-11T05:16:17.242Z,31.16
2023-02-11T05:19:02.160Z,31.68
2023-02-11T05:22:01.331Z,30.96
2023-02-11T05:24:47.152Z,31.22
2023-02-11T05:27:32.062Z,31.43
2023-02-11T05:30:16.985Z,30.93
2023-02-11T05:33:01.861Z,30.56
2023-02-11T05:35:46.697Z,31.70
2023-02-11T05:38:31.687Z,30.21
2023-02-11T05:41:16.579Z,30.55
2023-02-11T05:44:01.406Z,30.65
2023-02-11T05:46:46.337Z,30.85
2023-02-11T05:49:31.099Z,31.17
2023-02-11T05:52:15.989Z,30.16
2023-02-11T05:55:00.877Z,30.78
2023-02-11T05:57:45.787Z,30.45
2023-02-11T06:00:30.707Z,29.62
2023-02-11T06:03:15.699Z,29.99
2023-02-11T06:06:01.791Z,30.99
2023-02-11T06:08:46.722Z,30.09
2023-02-11T06:11:31.730Z,30.45
2023-02-11T06:14:16.569Z,30.67
2023-02-11T06:17:01.417Z,30.41
2023-02-11T06:19:46.428Z,30.23
2023-02-11T06:22:31.368Z,30.86
2023-02-11T06:25:16.305Z,31.11
2023-02-11T06:28:01.056Z,30.89
2023-02-11T06:30:45.969Z,29.83
2023-02-11T06:33:30.872Z,30.43
2023-02-11T06:36:15.719Z,29.78
2023-02-11T06:39:00.542Z,30.09
2023-02-11T06:41:45.420Z,30.32
2023-02-11T06:44:30.236Z,30.93
2023-02-11T06:47:15.102Z,30.33
2023-02-11T06:49:59.907Z,30.41
2023-02-11T06:52:44.816Z,29.61
2023-02-11T06:55:29.601Z,30.79
2023-02-11T06:58:14.582Z,30.44
2023-02-11T07:00:59.580Z,31.46
2023-02-11T07:03:44.520Z,32.02
2023-02-11T07:06:29.470Z,31.68
2023-02-11T07:09:14.238Z,31.55
2023-02-11T07:11:59.106Z,31.29
2023-02-11T07:14:44.115Z,32.10
2023-02-11T07:17:28.928Z,32.82
2023-02-11T07:20:13.823Z,32.53
2023-02-11T07:22:58.625Z,32.80
2023-02-11T07:25:43.490Z,33.52
2023-02-11T07:28:28.303Z,32.54
2023-02-11T07:31:13.363Z,35.14
2023-02-11T07:33:58.624Z,34.61
2023-02-11T07:36:43.458Z,34.79
2023-02-11T07:39:28.398Z,33.94
2023-02-11T07:42:13.214Z,36.20
2023-02-11T07:44:58.225Z,36.34
2023-02-11T07:47:43.059Z,36.92
2023-02-11T07:50:28.176Z,36.03
2023-02-11T07:53:13.355Z,36.50
2023-02-11T07:55:58.307Z,36.40
2023-02-11T07:58:43.237Z,37.37
2023-02-11T08:01:28.177Z,38.03
2023-02-11T08:04:13.469Z,37.97
2023-02-11T08:06:59.230Z,39.91
2023-02-11T08:09:44.283Z,39.59
2023-02-11T08:12:29.128Z,39.08
2023-02-11T08:15:14.068Z,37.44
2023-02-11T08:17:59.042Z,39.04
2023-02-11T08:20:44.041Z,39.73
2023-02-11T08:23:29.048Z,40.46
2023-02-11T08:26:13.825Z,41.49
2023-02-11T08:28:58.808Z,41.15
2023-02-11T08:31:43.766Z,42.41
2023-02-11T08:34:28.928Z,43.44
2023-02-11T08:37:13.640Z,43.92
2023-02-11T08:39:58.603Z,44.77
2023-02-11T08:42:43.463Z,46.22
2023-02-11T08:45:28.282Z,47.31
2023-02-11T08:48:13.198Z,47.22
2023-02-11T08:50:57.903Z,46.74
2023-02-11T08:53:42.839Z,46.86
2023-02-11T08:56:27.756Z,47.50
2023-02-11T08:59:12.683Z,47.60
2023-02-11T09:01:57.690Z,49.63
2023-02-11T09:04:42.525Z,48.46
2023-02-11T09:07:27.413Z,48.35
2023-02-11T09:10:12.222Z,48.32
2023-02-11T09:12:57.237Z,46.67
2023-02-11T09:15:42.113Z,48.50
2023-02-11T09:18:27.057Z,47.91
2023-02-11T09:21:11.844Z,49.09
2023-02-11T09:23:56.741Z,46.92
2023-02-11T09:26:41.578Z,47.16
2023-02-11T09:29:26.624Z,46.11
2023-02-11T09:32:11.785Z,46.42
2023-02-11T09:34:57.081Z,46.51
2023-02-11T09:37:42.061Z,45.45
2023-02-11T09:40:26.831Z,45.25
2023-02-11T09:43:11.796Z,44.68
2023-02-11T09:45:56.721Z,44.62
2023-02-11T09:48:41.581Z,46.37
2023-02-11T09:51:26.436Z,45.49
2023-02-11T09:54:11.277Z,44.88
2023-02-11T09:56:56.212Z,44.59
2023-02-11T09:59:41.076Z,46.71
2023-02-11T10:02:26.167Z,46.86
2023-02-11T10:05:11.067Z,46.56
2023-02-11T10:07:55.938Z,47.91
2023-02-11T10:10:40.726Z,46.76
2023-02-11T10:13:25.527Z,46.16
2023-02-11T10:16:10.552Z,46.12
2023-02-11T10:18:55.839Z,47.00
2023-02-11T10:21:40.535Z,47.48
2023-02-11T10:24:25.487Z,46.24
2023-02-11T10:27:10.425Z,46.45
2023-02-11T10:29:55.325Z,45.35
2023-02-11T10:32:40.223Z,45.81
2023-02-11T10:35:25.069Z,47.33
2023-02-11T10:38:10.094Z,47.51
2023-02-11T10:40:54.968Z,45.30
2023-02-11T10:43:39.790Z,47.20
2023-02-11T10:46:24.815Z,46.34
2023-02-11T10:49:09.681Z,47.49
2023-02-11T10:51:54.663Z,47.03
2023-02-11T10:54:39.604Z,46.45
2023-02-11T10:57:24.548Z,45.30
2023-02-11T11:00:09.481Z,43.88
2023-02-11T11:02:54.473Z,45.37
2023-02-11T11:05:39.356Z,44.49
2023-02-11T11:08:24.250Z,43.17
2023-02-11T11:11:09.094Z,43.24
2023-02-11T11:13:54.019Z,44.20
2023-02-11T11:16:39.100Z,44.09
2023-02-11T11:19:23.940Z,43.86
2023-02-11T11:22:08.838Z,43.44
2023-02-11T11:24:53.714Z,42.77
2023-02-11T11:27:38.650Z,42.28
2023-02-11T11:30:23.455Z,42.96
2023-02-11T11:33:08.402Z,41.67
2023-02-11T11:35:53.222Z,43.11
2023-02-11T11:38:38.095Z,43.29
2023-02-11T11:41:23.584Z,43.22
2023-02-11T11:44:08.480Z,44.21
2023-02-11T11:46:53.406Z,42.26
2023-02-11T11:49:38.269Z,43.36
2023-02-11T11:52:23.361Z,44.05
2023-02-11T11:55:08.160Z,42.36
2023-02-11T11:57:52.986Z,44.39
2023-02-11T12:00:37.958Z,43.80
2023-02-11T12:03:22.948Z,43.93
2023-02-11T12:06:07.910Z,43.08
2023-02-11T12:08:52.861Z,44.78
2023-02-11T12:11:37.865Z,44.10
2023-02-11T12:14:22.742Z,43.64
2023-02-11T12:17:07.686Z,43.10
2023-02-11T12:19:52.509Z,44.47
2023-02-11T12:22:37.413Z,43.96
2023-02-11T12:25:22.249Z,43.56
2023-02-11T12:28:07.138Z,44.27
2023-02-11T12:30:52.295Z,44.41
2023-02-11T12:33:37.252Z,43.10
2023-02-11T12:36:22.161Z,42.89
2023-02-11T12:39:06.910Z,42.15
2023-02-11T12:41:51.910Z,41.90
2023-02-11T12:44:36.780Z,42.69
2023-02-11T12:47:21.779Z,42.17
2023-02-11T12:50:06.827Z,41.59
2023-02-11T12:52:51.697Z,42.09
2023-02-11T12:55:36.499Z,41.79
2023-02-11T12:58:25.422Z,40.84
2023-02-11T13:01:14.805Z,41.11
2023-02-11T13:03:59.703Z,40.94
2023-02-11T13:06:44.605Z,40.06
2023-02-11T13:09:29.566Z,40.12
2023-02-11T13:12:14.288Z,40.55
2023-02-11T13:14:59.239Z,40.63
2023-02-11T13:17:44.099Z,40.91
2023-02-11T13:20:28.985Z,41.05
2023-02-11T13:23:14.085Z,40.55
2023-02-11T13:25:58.971Z,40.76
2023-02-11T13:28:43.938Z,40.09
2023-02-11T13:31:28.897Z,40.45
2023-02-11T13:34:14.348Z,39.07
2023-02-11T13:36:59.351Z,38.54
2023-02-11T13:39:44.107Z,38.87
2023-02-11T13:42:28.949Z,38.03
2023-02-11T13:45:13.761Z,40.26
2023-02-11T13:47:58.768Z,39.91
2023-02-11T13:50:43.566Z,40.13
2023-02-11T13:53:28.553Z,39.80
2023-02-11T13:56:13.439Z,38.68
2023-02-11T13:59:01.476Z,38.28
2023-02-11T14:01:46.953Z,37.70
2023-02-11T14:04:31.811Z,36.79
2023-02-11T14:07:16.781Z,36.44
2023-02-11T14:10:01.581Z,36.07
2023-02-11T14:12:46.452Z,36.75
2023-02-11T14:15:31.478Z,35.33
2023-02-11T14:18:16.246Z,35.14
2023-02-11T14:21:03.464Z,34.71
2023-02-11T14:23:48.473Z,33.75
2023-02-11T14:26:33.417Z,33.74
2023-02-11T14:29:18.265Z,33.94
2023-02-11T14:32:05.764Z,33.58
2023-02-11T14:34:51.156Z,33.06
2023-02-11T14:37:35.849Z,33.10
2023-02-11T14:40:20.887Z,32.93
2023-02-11T14:43:06.405Z,32.82
2023-02-11T14:45:52.127Z,33.31
2023-02-11T14:48:37.009Z,33.71
2023-02-11T14:51:21.825Z,34.19
2023-02-11T14:54:06.762Z,34.39
2023-02-11T14:56:51.515Z,35.45
2023-02-11T14:59:36.387Z,36.22
2023-02-11T15:02:21.333Z,36.91
2023-02-11T15:05:06.171Z,37.26
2023-02-11T15:07:51.031Z,38.61
2023-02-11T15:10:35.843Z,39.15
2023-02-11T15:13:20.724Z,38.86
2023-02-11T15:16:05.606Z,40.01
2023-02-11T15:18:51.068Z,41.01
2023-02-11T15:21:35.901Z,40.09
2023-02-11T15:24:20.827Z,40.28
2023-02-11T15:27:05.650Z,42.40
2023-02-11T15:29:50.595Z,41.17
2023-02-11T15:32:35.553Z,41.58
2023-02-11T15:35:20.436Z,41.38
2023-02-11T15:38:05.289Z,41.61
2023-02-11T15:40:50.397Z,41.83
2023-02-11T15:43:35.707Z,41.96
2023-02-11T15:46:20.600Z,42.45
2023-02-11T15:49:07.769Z,42.41
2023-02-11T15:51:52.877Z,41.56
2023-02-11T15:54:37.732Z,40.81
2023-02-11T15:57:22.623Z,41.38
2023-02-11T16:00:07.391Z,41.03
2023-02-11T16:02:52.415Z,41.58
2023-02-11T16:05:37.357Z,41.06
2023-02-11T16:08:22.238Z,40.29
2023-02-11T16:11:07.079Z,39.72
2023-02-11T16:13:52.018Z,39.84
2023-02-11T16:16:37.041Z,39.45
2023-02-11T16:19:25.223Z,38.54
2023-02-11T16:22:10.858Z,37.99
2023-02-11T16:24:55.920Z,37.49
2023-02-11T16:27:40.762Z,35.82
2023-02-11T16:30:25.797Z,33.68
2023-02-11T16:33:10.621Z,32.65
2023-02-11T16:35:55.568Z,33.52
2023-02-11T16:38:40.381Z,32.37
2023-02-11T16:41:25.205Z,31.71
2023-02-11T16:44:10.055Z,33.26
2023-02-11T16:46:54.889Z,32.55
2023-02-11T16:49:39.792Z,33.02
2023-02-11T16:52:24.602Z,32.59
2023-02-11T16:55:09.521Z,33.74
2023-02-11T16:57:54.314Z,35.66
2023-02-11T17:00:39.129Z,34.07
2023-02-11T17:03:23.954Z,33.56
2023-02-11T17:06:08.871Z,33.33
2023-02-11T17:08:53.758Z,33.95
2023-02-11T17:11:38.739Z,33.78
2023-02-11T17:14:23.604Z,30.95
2023-02-11T17:17:08.574Z,31.44
2023-02-11T17:19:53.522Z,29.89
2023-02-11T17:22:38.479Z,32.68
2023-02-11T17:25:23.423Z,33.55
2023-02-11T17:28:08.288Z,33.09
2023-02-11T17:30:53.619Z,34.11
2023-02-11T17:33:38.500Z,34.51
2023-02-11T17:36:23.324Z,33.21
2023-02-11T17:39:08.482Z,34.26
2023-02-11T17:41:53.586Z,33.59
2023-02-11T17:44:38.605Z,34.59
2023-02-11T17:47:23.344Z,34.48
2023-02-11T17:50:08.427Z,33.19
2023-02-11T17:52:53.397Z,31.88
2023-02-11T17:55:38.290Z,32.76
2023-02-11T17:58:23.207Z,31.24
2023-02-11T18:01:08.100Z,29.99
2023-02-11T18:03:53.469Z,29.50
2023-02-11T18:06:38.249Z,30.01
2023-02-11T18:09:23.152Z,30.46
2023-02-11T18:12:08.023Z,30.28
2023-02-11T18:14:53.024Z,30.66
2023-02-11T18:17:37.835Z,31.17
2023-02-11T18:20:22.846Z,31.32
2023-02-11T18:23:07.613Z,32.55
2023-02-11T18:25:52.982Z,34.03
2023-02-11T18:28:37.968Z,35.78
2023-02-11T18:31:22.941Z,38.18
2023-02-11T18:34:07.954Z,43.62
2023-02-11T18:36:52.695Z,48.14
2023-02-11T18:39:37.666Z,47.58
2023-02-11T18:42:22.504Z,44.19
2023-02-11T18:45:07.380Z,42.69
2023-02-11T18:47:52.138Z,41.63
2023-02-11T18:50:37.022Z,40.00
2023-02-11T18:53:22.147Z,39.89
2023-02-11T18:56:06.972Z,38.91
2023-02-11T18:58:52.047Z,39.01
2023-02-11T19:01:36.869Z,39.97
2023-02-11T19:04:21.861Z,40.15
2023-02-11T19:07:06.669Z,39.53
2023-02-11T19:09:51.546Z,41.04
2023-02-11T19:12:36.457Z,44.37
2023-02-11T19:15:21.482Z,43.38
2023-02-11T19:18:06.413Z,43.22
2023-02-11T19:20:51.267Z,44.25
2023-02-11T19:23:36.205Z,43.02
2023-02-11T19:26:21.173Z,44.20
2023-02-11T19:29:05.983Z,43.73
2023-02-11T19:31:50.936Z,44.58
2023-02-11T19:34:36.240Z,44.56
2023-02-11T19:37:21.026Z,44.27
2023-02-11T19:40:06.053Z,44.57
2023-02-11T19:42:50.940Z,46.39
2023-02-11T19:45:35.727Z,45.08
2023-02-11T19:48:20.631Z,46.08
2023-02-11T19:51:05.490Z,45.19
2023-02-11T19:53:50.363Z,45.97
2023-02-11T19:56:35.373Z,45.19
2023-02-11T19:59:20.188Z,44.65
2023-02-11T20:02:05.056Z,44.64
2023-02-11T20:04:49.930Z,45.14
2023-02-11T20:07:34.923Z,45.71
2023-02-11T20:10:19.749Z,46.70
2023-02-11T20:13:04.733Z,45.62
2023-02-11T20:15:49.726Z,46.57
2023-02-11T20:18:34.937Z,47.75
2023-02-11T20:21:19.807Z,47.42
2023-02-11T20:24:04.625Z,47.25
2023-02-11T20:26:49.587Z,47.29
2023-02-11T20:29:34.520Z,48.43
2023-02-11T20:32:19.513Z,47.80
2023-02-11T20:35:04.860Z,47.69
2023-02-11T20:37:49.882Z,48.71
2023-02-11T20:40:34.727Z,48.82
2023-02-11T20:43:19.581Z,49.20
2023-02-11T20:46:04.521Z,49.05
2023-02-11T20:48:49.407Z,50.08
2023-02-11T20:51:34.326Z,50.37
2023-02-11T20:54:19.128Z,50.63
2023-02-11T20:57:04.072Z,50.08
2023-02-11T20:59:48.855Z,48.52
2023-02-11T21:02:33.814Z,48.00
2023-02-11T21:05:18.685Z,47.16
2023-02-11T21:08:03.759Z,48.51
2023-02-11T21:10:48.589Z,47.24
2023-02-11T21:13:33.404Z,46.94
2023-02-11T21:16:18.287Z,47.01
2023-02-11T21:19:03.102Z,46.56
2023-02-11T21:21:48.007Z,48.54
2023-02-11T21:24:32.810Z,45.97
2023-02-11T21:27:17.778Z,46.83
2023-02-11T21:30:02.636Z,47.51
2023-02-11T21:32:47.684Z,46.00
2023-02-11T21:35:32.584Z,45.49
2023-02-11T21:38:17.556Z,45.76
2023-02-11T21:41:02.373Z,44.44
2023-02-11T21:43:47.347Z,42.74
2023-02-11T21:46:32.351Z,44.27
2023-02-11T21:49:17.120Z,43.07
2023-02-11T21:52:02.158Z,45.13
2023-02-11T21:54:46.927Z,43.83
2023-02-11T21:57:31.943Z,43.76
2023-02-11T22:00:16.684Z,43.68
2023-02-11T22:03:01.536Z,44.84
2023-02-11T22:05:46.553Z,44.24
2023-02-11T22:08:31.462Z,44.21
2023-02-11T22:11:16.493Z,44.41
2023-02-11T22:14:01.283Z,42.25
2023-02-11T22:16:46.262Z,41.66
2023-02-11T22:19:31.133Z,42.64
2023-02-11T22:22:16.026Z,42.55
2023-02-11T22:25:00.897Z,43.98
2023-02-11T22:27:45.993Z,43.87
2023-02-11T22:30:30.894Z,43.17
2023-02-11T22:33:15.811Z,43.22
2023-02-11T22:36:00.692Z,43.09
2023-02-11T22:38:45.641Z,43.75
2023-02-11T22:41:30.525Z,44.24
2023-02-11T22:44:15.425Z,43.65
2023-02-11T22:47:00.470Z,46.86
2023-02-11T22:49:45.457Z,46.30
2023-02-11T22:52:30.362Z,45.33
2023-02-11T22:55:15.223Z,43.44
2023-02-11T22:57:59.983Z,42.89
2023-02-11T23:00:44.944Z,43.64
2023-02-11T23:03:29.952Z,42.07
2023-02-11T23:06:14.833Z,42.77
2023-02-11T23:08:59.567Z,41.11
2023-02-11T23:11:44.608Z,41.07
2023-02-11T23:14:29.484Z,40.94
2023-02-11T23:17:14.437Z,39.83
2023-02-11T23:19:59.213Z,39.14
2023-02-11T23:22:44.278Z,38.53
2023-02-11T23:25:29.212Z,38.76
2023-02-11T23:28:14.023Z,38.78
2023-02-11T23:30:58.889Z,39.54
2023-02-11T23:33:43.694Z,39.35
2023-02-11T23:36:28.690Z,38.26
2023-02-11T23:39:13.433Z,39.18
2023-02-11T23:41:58.343Z,39.24
2023-02-11T23:44:43.229Z,39.74
2023-02-11T23:47:28.130Z,38.71
2023-02-11T23:50:13.058Z,39.58
2023-02-11T23:52:57.933Z,39.29
2023-02-11T23:55:43.025Z,38.89
2023-02-11T23:58:27.843Z,39.07
